Time;durP1;ratioP1;P1;durP2;ratioP2;P2;SDS_P1;SDS_P2;PMS_P1;PMS_P2;Temp;Humidity;BMP_temperature;BMP_pressure;BME280_temperature;BME280_humidity;BME280_pressure;Samples;Min_cycle;Max_cycle;Signal;HPM_P1;HPM_P2
2022/06/12 00:00:40;;;;;;;1.90;1.80;;;21.70;68.40;;;;;;4981502;28;20031;-57
2022/06/12 00:03:08;;;;;;;2.17;2.00;;;21.80;65.60;;;;;;4981480;28;20054;-57
2022/06/12 00:05:38;;;;;;;1.88;1.70;;;21.80;64.90;;;;;;4993654;28;20026;-55
2022/06/12 00:08:05;;;;;;;1.85;1.75;;;21.80;63.70;;;;;;5035840;28;20036;-55
2022/06/12 00:10:32;;;;;;;1.80;1.70;;;21.70;65.60;;;;;;5076530;28;20029;-56
2022/06/12 00:12:58;;;;;;;2.03;1.85;;;21.80;68.10;;;;;;5077662;28;20039;-57
2022/06/12 00:15:25;;;;;;;2.15;1.95;;;21.80;68.60;;;;;;5083073;28;20061;-56
2022/06/12 00:17:51;;;;;;;;;;;21.80;68.80;;;;;;5083080;28;20025;-57
2022/06/12 00:20:17;;;;;;;2.03;1.92;;;21.80;68.60;;;;;;5083009;28;19932;-57
2022/06/12 00:22:44;;;;;;;1.70;1.60;;;21.80;66.10;;;;;;5082813;28;20020;-55
2022/06/12 00:25:12;;;;;;;1.70;1.60;;;21.80;64.30;;;;;;5083441;28;20025;-56
2022/06/12 00:27:39;;;;;;;2.00;1.80;;;21.80;63.00;;;;;;5082532;28;20035;-54
2022/06/12 00:30:05;;;;;;;1.30;1.20;;;21.80;63.60;;;;;;5082602;28;20024;-58
2022/06/12 00:32:31;;;;;;;2.20;2.00;;;21.80;68.40;;;;;;5062780;28;20043;-57
2022/06/12 00:34:58;;;;;;;2.28;2.08;;;21.80;68.30;;;;;;5062676;28;20021;-55
2022/06/12 00:37:24;;;;;;;1.80;1.70;;;21.90;68.60;;;;;;5062684;28;20037;-57
2022/06/12 00:39:52;;;;;;;2.00;1.90;;;21.80;68.20;;;;;;5080579;28;20028;-57
2022/06/12 00:42:40;;;;;;;2.10;2.00;;;21.90;68.30;;;;;;5082675;28;20497;-57
2022/06/12 00:46:01;;;;;;;1.85;1.75;;;21.90;63.90;;;;;;5082665;28;20028;-56
2022/06/12 00:48:32;;;;;;;1.70;1.60;;;21.90;62.00;;;;;;5000153;28;20046;-57
2022/06/12 00:51:07;;;;;;;2.00;1.80;;;21.90;65.00;;;;;;5000162;28;20037;-57
2022/06/12 00:53:37;;;;;;;1.77;1.67;;;21.90;67.20;;;;;;5000294;28;20038;-56
2022/06/12 00:56:15;;;;;;;2.20;2.00;;;21.90;68.40;;;;;;5000803;28;20031;-56
2022/06/12 00:58:55;;;;;;;2.20;2.00;;;21.90;67.40;;;;;;5000535;28;20145;-57
2022/06/12 01:01:30;;;;;;;2.15;1.90;;;21.90;67.70;;;;;;4968281;28;20030;-56
2022/06/12 01:06:46;;;;;;;2.20;2.00;;;21.90;67.60;;;;;;4961555;28;20043;-57
2022/06/12 01:09:24;;;;;;;1.70;1.60;;;21.90;62.90;;;;;;5002563;28;20045;-57
2022/06/12 01:11:51;;;;;;;2.22;2.03;;;22.00;61.70;;;;;;4985075;28;20043;-57
2022/06/12 01:14:19;;;;;;;2.08;1.88;;;22.00;61.70;;;;;;5000626;28;20042;-57
2022/06/12 01:16:45;;;;;;;1.85;1.73;;;22.00;66.20;;;;;;4983880;28;20030;-52
2022/06/12 01:19:35;;;;;;;2.33;1.65;;;22.00;66.80;;;;;;4984047;28;20027;-57
2022/06/12 01:22:17;;;;;;;2.00;1.90;;;22.00;66.50;;;;;;5000080;28;20035;-55
2022/06/12 01:24:59;;;;;;;2.05;1.90;;;22.00;67.20;;;;;;5044440;28;20037;-55
2022/06/12 01:27:31;;;;;;;2.28;1.90;;;22.00;67.30;;;;;;5064911;28;20032;-57
2022/06/12 01:30:20;;;;;;;1.95;1.85;;;22.10;67.30;;;;;;5066438;28;20406;-57
2022/06/12 01:33:10;;;;;;;1.77;1.67;;;22.10;67.20;;;;;;5046648;28;20433;-57
2022/06/12 01:35:52;;;;;;;1.92;1.83;;;22.10;67.10;;;;;;5046423;28;20093;-56
2022/06/12 01:38:21;;;;;;;2.20;2.00;;;22.10;67.00;;;;;;5049993;28;20053;-58
2022/06/12 01:41:15;;;;;;;2.08;1.92;;;22.10;66.90;;;;;;5048047;28;20048;-58
2022/06/12 01:43:51;;;;;;;1.77;1.67;;;22.10;66.80;;;;;;5044677;28;20372;-58
2022/06/12 01:46:23;;;;;;;2.15;1.88;;;22.20;65.50;;;;;;5046065;28;20390;-57
2022/06/12 01:49:11;;;;;;;2.20;2.00;;;22.20;62.10;;;;;;5064163;28;20040;-57
2022/06/12 01:51:52;;;;;;;2.03;1.93;;;22.10;61.00;;;;;;5065548;28;20087;-58
2022/06/12 01:54:25;;;;;;;2.28;2.08;;;22.20;64.90;;;;;;5064578;28;20296;-57
2022/06/12 01:57:21;;;;;;;2.08;1.90;;;22.20;65.50;;;;;;5064588;28;20024;-57
2022/06/12 01:59:54;;;;;;;1.92;1.80;;;22.20;65.60;;;;;;5062489;28;20060;-57
2022/06/12 02:02:29;;;;;;;2.30;2.10;;;22.20;65.90;;;;;;5064158;28;20052;-57
2022/06/12 02:05:04;;;;;;;1.98;1.88;;;22.20;66.10;;;;;;5044399;28;20105;-57
2022/06/12 02:08:00;;;;;;;2.30;2.10;;;22.20;66.10;;;;;;5045678;28;20025;-58
2022/06/12 02:10:36;;;;;;;2.25;1.90;;;22.20;66.10;;;;;;5056476;28;20049;-56
2022/06/12 02:13:12;;;;;;;1.80;1.70;;;22.20;66.10;;;;;;5065194;28;20044;-58
2022/06/12 02:15:46;;;;;;;2.10;1.90;;;22.30;66.10;;;;;;5065650;28;20033;-58
2022/06/12 02:18:23;;;;;;;1.98;1.88;;;22.30;66.00;;;;;;5066151;28;20032;-58
2022/06/12 02:21:09;;;;;;;;;;;22.30;66.00;;;;;;5064636;28;20037;-57
2022/06/12 02:23:49;;;;;;;2.13;1.92;;;22.30;65.90;;;;;;5072900;28;19921;-56
2022/06/12 02:26:19;;;;;;;2.03;1.92;;;22.30;66.60;;;;;;5052343;28;20017;-58
2022/06/12 02:28:51;;;;;;;2.20;2.00;;;22.30;63.90;;;;;;5067809;28;20033;-58
2022/06/12 02:31:21;;;;;;;2.10;1.90;;;22.30;61.70;;;;;;5050862;28;20024;-57
2022/06/12 02:33:50;;;;;;;2.40;1.92;;;22.30;60.70;;;;;;5066194;28;20029;-58
2022/06/12 02:36:21;;;;;;;2.00;1.90;;;22.30;62.50;;;;;;5050511;28;20064;-58
2022/06/12 02:39:21;;;;;;;2.15;1.98;;;22.30;64.10;;;;;;5063901;28;20551;-58
2022/06/12 02:41:50;;;;;;;1.88;1.77;;;22.30;64.60;;;;;;5061982;28;20033;-58
2022/06/12 02:44:44;;;;;;;2.20;2.00;;;22.30;64.80;;;;;;5085139;28;20047;-56
2022/06/12 02:47:13;;;;;;;2.17;1.80;;;22.40;64.80;;;;;;5053189;28;20017;-57
2022/06/12 02:49:39;;;;;;;1.80;1.70;;;22.30;64.70;;;;;;5050448;28;20568;-58
2022/06/12 02:52:41;;;;;;;2.10;2.00;;;22.30;64.70;;;;;;5050149;28;20047;-57
2022/06/12 02:55:13;;;;;;;2.00;1.90;;;22.40;64.80;;;;;;5052175;28;20287;-58
2022/06/12 02:57:48;;;;;;;2.40;2.20;;;22.40;64.80;;;;;;5088370;28;20048;-57
2022/06/12 03:00:29;;;;;;;2.10;2.00;;;22.40;64.70;;;;;;5072292;28;20058;-57
2022/06/12 03:03:14;;;;;;;2.38;2.17;;;22.40;64.60;;;;;;5079981;28;20024;-55
2022/06/12 03:05:41;;;;;;;2.00;1.90;;;22.40;64.50;;;;;;5084673;28;20030;-57
2022/06/12 03:08:09;;;;;;;;;;;22.40;64.50;;;;;;5084932;28;20043;-57
2022/06/12 03:10:38;;;;;;;2.15;1.95;;;22.40;64.40;;;;;;5067079;28;19925;-56
2022/06/12 03:13:05;;;;;;;2.00;1.90;;;22.40;64.30;;;;;;5046562;28;20586;-58
2022/06/12 03:15:52;;;;;;;2.75;2.25;;;22.40;64.20;;;;;;5064399;28;20025;-57
2022/06/12 03:18:31;;;;;;;2.03;1.92;;;22.50;64.20;;;;;;5078210;28;20036;-57
2022/06/12 03:21:10;;;;;;;2.53;1.63;;;22.50;64.10;;;;;;5084402;28;20068;-57
2022/06/12 03:23:58;;;;;;;2.05;1.90;;;22.50;64.00;;;;;;5084317;28;20074;-58
2022/06/12 03:26:41;;;;;;;2.03;1.83;;;22.50;63.90;;;;;;5084098;28;20067;-58
2022/06/12 03:29:22;;;;;;;2.03;1.92;;;22.50;63.80;;;;;;5084395;28;20035;-58
2022/06/12 03:32:19;;;;;;;2.20;2.10;;;22.50;63.80;;;;;;5084036;28;20039;-58
2022/06/12 03:34:58;;;;;;;1.85;1.75;;;22.50;63.70;;;;;;5047760;28;20048;-58
2022/06/12 03:37:54;;;;;;;2.42;2.00;;;22.50;63.60;;;;;;5046345;28;20083;-58
2022/06/12 03:40:40;;;;;;;2.03;1.92;;;22.50;63.50;;;;;;5068304;28;20037;-58
2022/06/12 03:43:16;;;;;;;1.88;1.77;;;22.60;63.40;;;;;;5059181;28;20033;-57
2022/06/12 03:46:02;;;;;;;2.17;1.98;;;22.50;64.10;;;;;;5062755;28;20446;-58
2022/06/12 03:48:53;;;;;;;1.70;1.60;;;22.60;63.40;;;;;;5062322;28;20032;-58
2022/06/12 03:51:25;;;;;;;2.03;1.90;;;22.60;63.30;;;;;;5041007;28;20054;-58
2022/06/12 03:53:59;;;;;;;2.08;1.88;;;22.60;63.20;;;;;;5062165;28;20029;-58
2022/06/12 04:00:17;;;;;;;2.00;1.90;;;22.60;62.90;;;;;;5083794;28;20077;-58
2022/06/12 04:02:55;;;;;;;2.00;1.90;;;22.60;62.80;;;;;;5050118;28;20050;-59
2022/06/12 04:05:28;;;;;;;2.22;2.10;;;22.60;62.70;;;;;;5050475;28;20035;-57
2022/06/12 04:07:55;;;;;;;1.83;1.73;;;22.60;62.60;;;;;;5084653;28;20055;-56
2022/06/12 04:10:23;;;;;;;1.83;1.73;;;22.60;62.50;;;;;;5065665;28;20039;-58
2022/06/12 04:12:49;;;;;;;2.65;1.75;;;22.60;63.10;;;;;;5083064;28;20032;-56
2022/06/12 04:15:25;;;;;;;1.48;1.38;;;22.60;62.30;;;;;;5065569;28;20032;-57
2022/06/12 04:17:51;;;;;;;1.95;1.85;;;22.60;62.40;;;;;;5065322;28;20096;-58
2022/06/12 04:20:22;;;;;;;2.08;1.98;;;22.70;62.30;;;;;;5083241;28;20112;-58
2022/06/12 04:23:21;;;;;;;1.90;1.80;;;22.70;62.30;;;;;;5048376;28;20097;-56
2022/06/12 04:25:55;;;;;;;2.33;2.13;;;22.70;62.30;;;;;;5049932;28;20041;-58
2022/06/12 04:28:42;;;;;;;1.88;1.77;;;22.70;62.20;;;;;;5045295;28;20040;-58
2022/06/12 04:31:16;;;;;;;2.45;1.83;;;22.70;62.20;;;;;;5063147;28;20021;-58
2022/06/12 04:33:56;;;;;;;2.50;2.05;;;22.70;62.10;;;;;;5074143;28;20083;-57
2022/06/12 04:36:23;;;;;;;2.33;1.88;;;22.70;62.00;;;;;;5066605;28;20366;-59
2022/06/12 04:38:49;;;;;;;2.03;1.92;;;22.70;61.90;;;;;;5083189;28;20054;-59
2022/06/12 04:41:23;;;;;;;2.28;2.08;;;22.70;61.90;;;;;;5070888;28;20028;-58
2022/06/12 04:43:49;;;;;;;2.00;1.90;;;22.70;61.90;;;;;;5082972;28;20500;-58
2022/06/12 04:46:15;;;;;;;2.35;2.15;;;22.70;61.80;;;;;;5083128;28;20028;-58
2022/06/12 04:48:42;;;;;;;2.20;2.00;;;22.70;61.80;;;;;;5083045;28;20036;-55
2022/06/12 04:51:09;;;;;;;;;;;22.70;61.70;;;;;;5065518;28;20115;-58
2022/06/12 04:53:35;;;;;;;2.40;2.20;;;22.70;61.60;;;;;;5095908;28;19908;-58
2022/06/12 04:56:03;;;;;;;2.47;2.28;;;22.70;61.60;;;;;;5102956;28;20763;-58
2022/06/12 04:58:29;;;;;;;2.00;1.90;;;22.70;61.60;;;;;;5100168;28;20032;-58
2022/06/12 05:00:56;;;;;;;2.28;2.05;;;22.70;61.50;;;;;;5082074;28;20052;-57
2022/06/12 05:03:22;;;;;;;2.33;2.17;;;22.70;61.50;;;;;;5081413;28;20490;-58
2022/06/12 05:05:48;;;;;;;2.00;1.90;;;22.70;61.50;;;;;;5082558;28;20265;-57
2022/06/12 05:08:15;;;;;;;3.35;2.33;;;22.80;61.50;;;;;;5082835;28;20032;-58
2022/06/12 05:10:41;;;;;;;2.53;2.30;;;22.70;61.30;;;;;;5082733;28;20021;-59
2022/06/12 05:13:08;;;;;;;2.28;2.03;;;22.70;61.30;;;;;;5082800;28;20044;-58
2022/06/12 05:15:34;;;;;;;2.28;2.08;;;22.70;61.20;;;;;;5082526;28;20024;-59
2022/06/12 05:18:00;;;;;;;2.30;2.10;;;22.80;61.40;;;;;;5064321;28;20040;-58
2022/06/12 05:20:28;;;;;;;2.17;1.98;;;22.70;61.30;;;;;;5082562;28;20947;-56
2022/06/12 05:22:54;;;;;;;2.55;2.35;;;22.70;61.20;;;;;;5082493;28;20107;-57
2022/06/12 05:25:20;;;;;;;2.30;2.10;;;22.80;61.30;;;;;;5082520;28;20704;-58
2022/06/12 05:27:47;;;;;;;2.00;1.90;;;22.80;61.30;;;;;;5082599;28;20028;-58
2022/06/12 05:30:14;;;;;;;2.10;2.00;;;22.80;61.30;;;;;;5082475;28;20016;-58
2022/06/12 05:32:41;;;;;;;2.40;2.20;;;22.80;61.20;;;;;;5081573;28;20037;-56
2022/06/12 05:35:07;;;;;;;2.50;2.30;;;22.80;61.20;;;;;;5064316;28;20055;-58
2022/06/12 05:37:36;;;;;;;2.63;2.30;;;22.80;61.10;;;;;;5082670;28;20029;-58
2022/06/12 05:40:04;;;;;;;2.35;2.20;;;22.80;61.10;;;;;;5064698;28;20036;-58
2022/06/12 05:42:30;;;;;;;2.55;2.35;;;22.80;61.10;;;;;;5082367;28;20024;-58
2022/06/12 05:44:56;;;;;;;2.38;2.17;;;22.80;61.10;;;;;;5063923;28;20027;-58
2022/06/12 05:47:22;;;;;;;2.72;2.53;;;22.80;61.00;;;;;;5082231;28;20064;-58
2022/06/12 05:49:48;;;;;;;2.85;2.42;;;22.80;61.00;;;;;;5082453;28;20028;-58
2022/06/12 05:52:14;;;;;;;2.67;2.47;;;22.80;61.00;;;;;;5082062;28;20068;-58
2022/06/12 05:54:41;;;;;;;2.17;2.05;;;22.80;61.00;;;;;;5081939;28;20088;-58
2022/06/12 05:57:07;;;;;;;2.35;2.15;;;22.80;61.00;;;;;;5082395;28;20021;-58
2022/06/12 05:59:34;;;;;;;2.10;2.00;;;22.80;61.00;;;;;;5082236;28;20028;-58
2022/06/12 06:02:00;;;;;;;2.35;2.25;;;22.80;61.70;;;;;;5066508;28;20754;-58
2022/06/12 06:04:26;;;;;;;2.60;2.40;;;22.80;61.00;;;;;;5083121;28;20035;-58
2022/06/12 06:06:54;;;;;;;2.40;2.20;;;22.80;61.00;;;;;;5102609;28;20024;-59
2022/06/12 06:09:20;;;;;;;2.60;2.20;;;22.80;61.00;;;;;;5088226;28;20028;-56
2022/06/12 06:11:46;;;;;;;1.85;1.75;;;22.80;61.00;;;;;;5083136;28;20111;-58
2022/06/12 06:14:13;;;;;;;2.60;2.40;;;22.80;60.90;;;;;;5085472;28;20078;-58
2022/06/12 06:16:41;;;;;;;2.70;2.30;;;22.80;61.70;;;;;;5085895;28;20127;-57
2022/06/12 06:19:07;;;;;;;2.40;2.20;;;22.80;60.90;;;;;;5084827;28;20021;-58
2022/06/12 06:21:33;;;;;;;2.23;2.10;;;22.80;60.90;;;;;;5085498;28;20489;-57
2022/06/12 06:23:59;;;;;;;2.97;2.78;;;22.80;60.90;;;;;;5087148;28;20265;-58
2022/06/12 06:26:25;;;;;;;2.15;2.05;;;22.80;60.90;;;;;;5085677;28;20124;-58
2022/06/12 06:28:52;;;;;;;2.50;2.30;;;22.80;60.90;;;;;;5085450;28;20058;-58
2022/06/12 06:31:18;;;;;;;2.47;2.28;;;22.80;60.90;;;;;;5085482;28;20052;-58
2022/06/12 06:33:44;;;;;;;2.45;2.25;;;22.80;60.90;;;;;;5072566;28;20040;-58
2022/06/12 06:36:11;;;;;;;2.42;2.22;;;22.80;60.90;;;;;;5073962;28;20017;-58
2022/06/12 06:38:37;;;;;;;2.30;2.10;;;22.80;60.80;;;;;;5085621;28;20031;-58
2022/06/12 06:41:04;;;;;;;2.60;2.40;;;22.80;60.80;;;;;;5074451;28;20094;-58
2022/06/12 06:43:30;;;;;;;2.43;2.23;;;22.80;60.80;;;;;;5084426;28;20277;-59
2022/06/12 06:46:15;;;;;;;2.47;2.28;;;22.80;60.80;;;;;;5084860;28;20024;-58
2022/06/12 06:48:41;;;;;;;2.78;2.58;;;22.80;60.80;;;;;;5087112;28;20047;-58
2022/06/12 06:51:07;;;;;;;2.40;2.20;;;22.80;60.70;;;;;;5085078;28;20024;-58
2022/06/12 06:53:33;;;;;;;2.50;2.28;;;22.80;60.80;;;;;;5085055;28;20037;-59
2022/06/12 06:55:59;;;;;;;2.38;2.17;;;22.80;60.80;;;;;;5084392;28;20080;-58
2022/06/12 06:58:26;;;;;;;2.58;2.38;;;22.80;60.80;;;;;;5085035;28;20029;-58
2022/06/12 07:00:52;;;;;;;2.33;2.15;;;22.80;60.80;;;;;;5084900;28;20082;-58
2022/06/12 07:03:18;;;;;;;2.33;2.13;;;22.80;60.70;;;;;;5076199;28;20029;-58
2022/06/12 07:05:45;;;;;;;2.50;2.30;;;22.80;60.70;;;;;;5064346;28;20029;-58
2022/06/12 07:08:11;;;;;;;2.40;2.30;;;22.80;60.70;;;;;;5075675;28;20029;-58
2022/06/12 07:10:39;;;;;;;2.67;2.47;;;22.80;60.70;;;;;;5084948;28;20037;-59
2022/06/12 07:13:05;;;;;;;2.30;2.13;;;22.80;60.70;;;;;;5084715;28;20853;-59
2022/06/12 07:15:32;;;;;;;2.40;2.20;;;22.80;60.70;;;;;;5066462;28;20039;-57
2022/06/12 07:18:01;;;;;;;2.60;2.40;;;22.80;60.80;;;;;;5084375;28;20081;-57
2022/06/12 07:20:31;;;;;;;2.40;2.20;;;22.70;60.70;;;;;;5084452;28;20055;-58
2022/06/12 07:22:57;;;;;;;3.13;2.30;;;22.70;60.70;;;;;;5083884;28;20037;-57
2022/06/12 07:25:24;;;;;;;2.58;2.38;;;22.70;60.70;;;;;;5084111;28;20033;-59
2022/06/12 07:27:50;;;;;;;2.63;2.42;;;22.70;60.70;;;;;;5084423;28;20028;-58
2022/06/12 07:30:18;;;;;;;2.30;2.10;;;22.70;60.70;;;;;;5084270;28;20039;-59
2022/06/12 07:32:44;;;;;;;2.83;2.63;;;22.70;60.70;;;;;;5079935;28;20033;-58
2022/06/12 07:35:10;;;;;;;2.40;2.20;;;22.70;60.70;;;;;;5064333;28;20025;-58
2022/06/12 07:37:37;;;;;;;2.65;2.42;;;22.80;60.80;;;;;;5082490;28;20108;-57
2022/06/12 07:40:05;;;;;;;2.35;2.10;;;22.70;60.70;;;;;;5084227;28;20028;-58
2022/06/12 07:42:31;;;;;;;2.75;2.55;;;22.70;60.70;;;;;;5084063;28;20036;-56
2022/06/12 07:44:57;;;;;;;2.58;2.33;;;22.80;60.70;;;;;;5083701;28;20385;-58
2022/06/12 07:47:24;;;;;;;2.60;2.40;;;22.70;60.70;;;;;;5084032;28;20064;-58
2022/06/12 07:49:50;;;;;;;2.65;2.45;;;22.70;60.70;;;;;;5084019;28;20543;-58
2022/06/12 07:52:16;;;;;;;2.60;2.40;;;22.70;60.70;;;;;;5083833;28;20075;-58
2022/06/12 07:54:42;;;;;;;2.50;2.30;;;22.70;60.70;;;;;;5084000;28;20020;-59
2022/06/12 07:57:09;;;;;;;2.50;2.30;;;22.70;60.70;;;;;;5086144;28;20044;-58
2022/06/12 07:59:35;;;;;;;2.90;2.70;;;22.70;60.70;;;;;;5084333;28;20028;-58
2022/06/12 08:02:01;;;;;;;3.00;2.72;;;22.70;60.70;;;;;;5083700;28;20033;-58
2022/06/12 08:04:27;;;;;;;2.60;2.40;;;22.70;60.70;;;;;;5082442;28;20033;-58
2022/06/12 08:06:53;;;;;;;2.67;2.47;;;22.70;60.70;;;;;;5083282;28;20028;-58
2022/06/12 08:09:20;;;;;;;2.65;2.45;;;22.70;60.80;;;;;;5083676;28;20108;-58
2022/06/12 08:11:48;;;;;;;2.90;2.70;;;22.70;60.80;;;;;;5083593;28;20032;-58
2022/06/12 08:14:14;;;;;;;2.70;2.50;;;22.70;60.80;;;;;;5083462;28;20032;-58
2022/06/12 08:16:41;;;;;;;2.80;2.60;;;22.70;60.80;;;;;;5083114;28;20024;-58
2022/06/12 08:20:24;;;;;;;2.90;2.60;;;22.70;60.90;;;;;;5083665;28;20591;-56
2022/06/12 08:21:54;;;;;;;2.60;2.40;;;22.70;60.80;;;;;;5083359;28;20103;-58
2022/06/12 08:24:20;;;;;;;2.60;2.40;;;22.70;60.90;;;;;;5083357;28;20052;-58
2022/06/12 08:26:46;;;;;;;2.47;2.27;;;22.70;60.90;;;;;;5084694;28;20021;-58
2022/06/12 08:29:13;;;;;;;2.50;2.30;;;22.70;60.90;;;;;;5083498;28;20267;-58
2022/06/12 08:31:47;;;;;;;2.63;2.43;;;22.70;60.90;;;;;;5083069;28;20080;-58
2022/06/12 08:34:22;;;;;;;2.70;2.50;;;22.70;60.90;;;;;;5082922;28;20126;-58
2022/06/12 08:36:59;;;;;;;2.85;2.53;;;22.70;60.90;;;;;;5065956;28;20048;-56
2022/06/12 08:39:26;;;;;;;2.70;2.50;;;22.70;60.90;;;;;;5068737;28;20075;-58
2022/06/12 08:42:27;;;;;;;2.85;2.65;;;22.70;60.90;;;;;;5050653;28;20029;-58
2022/06/12 08:45:15;;;;;;;2.50;2.30;;;22.70;61.00;;;;;;5083292;28;20028;-58
2022/06/12 08:48:08;;;;;;;2.75;2.55;;;22.70;60.90;;;;;;5082934;28;20024;-58
2022/06/12 08:50:43;;;;;;;3.00;2.80;;;22.70;61.00;;;;;;5084086;28;20524;-58
2022/06/12 08:53:14;;;;;;;2.92;2.72;;;22.70;61.00;;;;;;5083200;28;20047;-58
2022/06/12 08:55:53;;;;;;;2.53;2.33;;;22.70;61.00;;;;;;5083030;28;20023;-57
2022/06/12 08:58:31;;;;;;;2.90;2.70;;;22.70;61.00;;;;;;5083274;28;20109;-59
2022/06/12 09:00:58;;;;;;;3.00;2.70;;;22.70;61.00;;;;;;5065062;28;20046;-58
2022/06/12 09:03:26;;;;;;;2.83;2.45;;;22.70;61.00;;;;;;5073437;28;20120;-58
2022/06/12 09:06:30;;;;;;;2.70;2.50;;;22.70;60.90;;;;;;5062541;28;20076;-57
2022/06/12 09:09:05;;;;;;;2.78;2.58;;;22.70;61.00;;;;;;5073420;28;20029;-58
2022/06/12 09:11:38;;;;;;;2.70;2.50;;;22.70;61.10;;;;;;5061840;28;21013;-58
2022/06/12 09:14:14;;;;;;;2.90;2.65;;;22.70;61.10;;;;;;5047640;28;20086;-58
2022/06/12 09:17:27;;;;;;;2.70;2.50;;;22.70;61.80;;;;;;5000293;28;20034;-58
2022/06/12 09:19:53;;;;;;;3.17;2.88;;;22.70;61.10;;;;;;5000688;28;20077;-58
2022/06/12 09:22:38;;;;;;;2.90;2.70;;;22.60;61.10;;;;;;5000721;28;20085;-58
2022/06/12 09:25:50;;;;;;;2.80;2.60;;;22.60;61.10;;;;;;5000786;28;20604;-58
2022/06/12 09:28:52;;;;;;;2.92;2.50;;;22.60;61.10;;;;;;4985144;28;20484;-59
2022/06/12 09:31:19;;;;;;;2.60;2.40;;;22.60;61.10;;;;;;4967214;28;20435;-58
2022/06/12 09:33:50;;;;;;;2.63;2.42;;;22.60;61.10;;;;;;4981200;28;20031;-57
2022/06/12 09:36:53;;;;;;;2.67;2.47;;;22.60;61.10;;;;;;4981380;28;20163;-58
2022/06/12 09:39:43;;;;;;;2.75;2.55;;;22.70;61.20;;;;;;4994461;28;20050;-58
2022/06/12 09:42:20;;;;;;;2.75;2.55;;;22.60;61.10;;;;;;4984203;28;20030;-58
2022/06/12 09:44:52;;;;;;;2.60;2.40;;;22.60;61.10;;;;;;5000163;28;20038;-57
2022/06/12 09:47:44;;;;;;;2.90;2.70;;;22.60;61.10;;;;;;4980624;28;20039;-58
2022/06/12 09:50:33;;;;;;;3.05;2.67;;;22.60;61.20;;;;;;4969185;28;20079;-57
2022/06/12 09:53:16;;;;;;;2.92;2.63;;;22.60;61.10;;;;;;4959401;28;20050;-58
2022/06/12 09:55:52;;;;;;;2.83;2.63;;;22.60;61.10;;;;;;5049107;28;20021;-58
2022/06/12 09:58:23;;;;;;;2.60;2.40;;;22.60;61.10;;;;;;5065934;28;20035;-57
2022/06/12 10:00:56;;;;;;;3.17;2.88;;;22.60;61.20;;;;;;5048135;28;20052;-57
2022/06/12 10:03:31;;;;;;;2.78;2.58;;;22.60;61.20;;;;;;5065820;28;20023;-58
2022/06/12 10:06:30;;;;;;;3.03;2.67;;;22.60;61.10;;;;;;5064517;28;20061;-58
2022/06/12 10:09:18;;;;;;;2.83;2.63;;;22.60;61.10;;;;;;5050237;28;20045;-57
2022/06/12 10:11:52;;;;;;;3.25;3.00;;;22.60;61.00;;;;;;5082109;28;20087;-57
2022/06/12 10:14:28;;;;;;;2.78;2.58;;;22.60;61.10;;;;;;5068417;28;20084;-58
2022/06/12 10:17:00;;;;;;;2.72;2.53;;;22.60;61.10;;;;;;5085407;28;20546;-58
2022/06/12 10:20:01;;;;;;;3.05;2.80;;;22.60;61.00;;;;;;5051741;28;20100;-58
2022/06/12 10:22:41;;;;;;;2.85;2.65;;;22.60;61.00;;;;;;5085217;28;20083;-58
2022/06/12 10:25:08;;;;;;;3.05;2.85;;;22.50;61.00;;;;;;5085730;28;20512;-57
2022/06/12 10:27:46;;;;;;;3.00;2.70;;;22.60;61.10;;;;;;5085305;28;20037;-58
2022/06/12 10:30:33;;;;;;;2.70;2.50;;;22.50;61.00;;;;;;5085511;28;20024;-59
2022/06/12 10:33:24;;;;;;;3.03;2.83;;;22.50;61.10;;;;;;5084342;28;20143;-55
2022/06/12 10:35:59;;;;;;;3.03;2.53;;;22.50;61.10;;;;;;5085169;28;20804;-58
2022/06/12 10:38:36;;;;;;;2.85;2.65;;;22.50;61.00;;;;;;5088660;28;20037;-57
2022/06/12 10:41:07;;;;;;;2.93;2.63;;;22.50;60.90;;;;;;5085415;28;20032;-58
2022/06/12 10:43:36;;;;;;;3.13;2.55;;;22.50;61.00;;;;;;5067402;28;20269;-56
2022/06/12 10:46:24;;;;;;;2.75;2.55;;;22.50;61.00;;;;;;5067604;28;20023;-57
2022/06/12 10:49:24;;;;;;;3.25;3.00;;;22.50;61.00;;;;;;5085069;28;20020;-57
2022/06/12 10:51:51;;;;;;;3.10;2.90;;;22.50;61.70;;;;;;5080853;28;20824;-56
2022/06/12 10:54:22;;;;;;;2.92;2.72;;;22.50;61.00;;;;;;5088638;28;20045;-57
2022/06/12 10:57:10;;;;;;;3.00;2.70;;;22.50;61.10;;;;;;5066959;28;20058;-57
2022/06/12 10:59:42;;;;;;;3.15;2.95;;;22.50;61.10;;;;;;5067368;28;20126;-57
2022/06/12 11:02:19;;;;;;;3.10;2.80;;;22.50;61.10;;;;;;5067204;28;20017;-58
2022/06/12 11:05:07;;;;;;;3.08;2.88;;;22.50;60.80;;;;;;5030610;28;20450;-57
2022/06/12 11:07:58;;;;;;;3.05;2.80;;;22.50;61.00;;;;;;5064937;28;20052;-58
2022/06/12 11:10:43;;;;;;;2.83;2.63;;;22.50;61.00;;;;;;5070076;28;20040;-58
2022/06/12 11:13:28;;;;;;;2.80;2.60;;;22.40;61.00;;;;;;5084736;28;20047;-57
2022/06/12 11:16:13;;;;;;;2.78;2.58;;;22.40;61.00;;;;;;5084493;28;20087;-56
2022/06/12 11:19:05;;;;;;;3.40;3.10;;;22.40;61.00;;;;;;5066512;28;20428;-58
2022/06/12 11:21:40;;;;;;;3.17;2.88;;;22.50;61.20;;;;;;5084400;28;20032;-57
2022/06/12 11:24:12;;;;;;;3.00;2.80;;;22.40;61.10;;;;;;5066566;28;20108;-55
2022/06/12 11:26:57;;;;;;;3.10;2.90;;;22.40;61.00;;;;;;5066698;28;20080;-57
2022/06/12 11:30:01;;;;;;;3.42;2.80;;;22.40;61.10;;;;;;5068305;28;20084;-55
2022/06/12 11:32:38;;;;;;;2.95;2.75;;;22.40;61.10;;;;;;5023289;28;20044;-57
2022/06/12 11:35:32;;;;;;;2.85;2.65;;;22.40;61.00;;;;;;5064471;28;20018;-57
2022/06/12 11:38:01;;;;;;;3.10;2.80;;;22.40;61.10;;;;;;5050443;28;20033;-56
2022/06/12 11:40:48;;;;;;;3.03;2.80;;;22.40;61.10;;;;;;5084298;28;20704;-57
2022/06/12 11:43:23;;;;;;;2.70;2.50;;;22.40;60.90;;;;;;5084043;28;20032;-56
2022/06/12 11:46:07;;;;;;;3.20;2.90;;;22.40;61.00;;;;;;5067259;28;20027;-58
2022/06/12 11:49:05;;;;;;;3.40;3.10;;;22.40;61.00;;;;;;5083807;28;20031;-58
2022/06/12 11:51:36;;;;;;;2.90;2.70;;;22.40;61.10;;;;;;5082472;28;20039;-58
2022/06/12 11:54:12;;;;;;;3.03;2.83;;;22.40;61.00;;;;;;5094713;28;20092;-57
2022/06/12 11:56:41;;;;;;;3.30;3.00;;;22.40;60.90;;;;;;5104260;28;20084;-56
2022/06/12 11:59:37;;;;;;;3.63;2.80;;;22.40;60.90;;;;;;5103768;28;20051;-57
2022/06/12 12:02:27;;;;;;;3.10;2.90;;;22.40;61.00;;;;;;5104015;28;20024;-56
2022/06/12 12:05:22;;;;;;;2.92;2.72;;;22.40;60.90;;;;;;5063880;28;20053;-58
2022/06/12 12:08:00;;;;;;;2.95;2.65;;;22.30;60.80;;;;;;5064612;28;20025;-58
2022/06/12 12:10:44;;;;;;;3.17;2.88;;;22.30;61.20;;;;;;5083152;28;20033;-55
2022/06/12 12:13:21;;;;;;;2.85;2.65;;;22.30;60.90;;;;;;5074833;28;20092;-58
2022/06/12 12:16:08;;;;;;;2.80;2.60;;;22.40;60.80;;;;;;5083552;28;20024;-58
2022/06/12 12:18:40;;;;;;;2.80;2.60;;;22.30;60.70;;;;;;5083357;28;20036;-57
2022/06/12 12:21:29;;;;;;;2.95;2.70;;;22.40;60.90;;;;;;5065406;28;20036;-60
2022/06/12 12:23:56;;;;;;;3.00;2.80;;;22.30;60.80;;;;;;5062241;28;20041;-57
2022/06/12 12:26:33;;;;;;;2.90;2.70;;;22.30;60.90;;;;;;5062003;28;20032;-58
2022/06/12 12:29:11;;;;;;;2.90;2.67;;;22.30;61.70;;;;;;5063032;28;20032;-58
2022/06/12 12:31:55;;;;;;;3.00;2.80;;;22.30;61.00;;;;;;5062809;28;20025;-58
2022/06/12 12:34:23;;;;;;;2.78;2.58;;;22.30;61.00;;;;;;5044389;28;20520;-56
2022/06/12 12:42:36;;;;;;;2.78;2.58;;;22.30;61.00;;;;;;5054279;28;20039;-57
2022/06/12 12:45:30;;;;;;;2.90;2.70;;;22.30;61.10;;;;;;5063079;28;20095;-58
2022/06/12 12:48:05;;;;;;;2.90;2.70;;;22.30;61.10;;;;;;5061292;28;20057;-57
2022/06/12 12:50:46;;;;;;;2.90;2.70;;;22.30;61.10;;;;;;5062534;28;20029;-58
2022/06/12 12:53:26;;;;;;;2.75;2.55;;;22.30;61.10;;;;;;5062939;28;20041;-57
2022/06/12 12:55:59;;;;;;;2.80;2.60;;;22.30;61.10;;;;;;5062511;28;20028;-57
2022/06/12 12:58:25;;;;;;;2.95;2.75;;;22.30;61.10;;;;;;5063101;28;20047;-58
2022/06/12 13:01:02;;;;;;;2.65;2.45;;;22.30;61.10;;;;;;5061054;28;20060;-58
2022/06/12 13:03:38;;;;;;;2.70;2.50;;;22.30;61.10;;;;;;5061929;28;20522;-58
2022/06/12 13:06:14;;;;;;;2.65;2.45;;;22.30;61.10;;;;;;5062459;28;20021;-58
2022/06/12 13:09:04;;;;;;;2.80;2.60;;;22.30;61.10;;;;;;5062621;28;20549;-57
2022/06/12 13:11:51;;;;;;;2.55;2.35;;;22.30;61.20;;;;;;5050556;28;20033;-56
2022/06/12 13:14:24;;;;;;;2.85;2.65;;;22.30;61.30;;;;;;5062614;28;20041;-57
2022/06/12 13:16:54;;;;;;;2.90;2.70;;;22.30;61.50;;;;;;5062505;28;20029;-57
2022/06/12 13:19:58;;;;;;;2.72;2.53;;;22.30;61.50;;;;;;5062404;28;20029;-57
2022/06/12 13:23:04;;;;;;;2.55;2.35;;;22.30;61.60;;;;;;5048084;28;20064;-57
2022/06/12 13:25:38;;;;;;;3.15;2.85;;;22.30;61.90;;;;;;5065241;28;20045;-56
2022/06/12 13:28:04;;;;;;;2.67;2.47;;;22.30;62.00;;;;;;5066528;28;20024;-56
2022/06/12 13:30:38;;;;;;;2.67;2.47;;;22.30;62.10;;;;;;5065044;28;20611;-57
2022/06/12 13:33:37;;;;;;;2.85;2.65;;;22.30;62.30;;;;;;5059970;28;20038;-57
2022/06/12 13:36:14;;;;;;;3.33;2.80;;;22.30;62.50;;;;;;5003913;28;20054;-57
2022/06/12 13:38:45;;;;;;;2.60;2.40;;;22.30;62.60;;;;;;4989400;28;20084;-56
2022/06/12 13:41:23;;;;;;;2.67;2.47;;;22.30;62.90;;;;;;5003868;28;20046;-57